sensor_id;sensor_type;location;lat;lon;timestamp;pressure;altitude;pressure_sealevel;temperature;humidity
74079;BME280;62437;51.544;-3.276;2023-06-10T00:02:20;100693.57;;;16.51;53.01
74079;BME280;62437;51.544;-3.276;2023-06-10T00:04:46;100687.88;;;17.40;52.45
74079;BME280;62437;51.544;-3.276;2023-06-10T00:07:12;100689.06;;;16.90;52.07
74079;BME280;62437;51.544;-3.276;2023-06-10T00:09:37;100692.18;;;16.07;54.39
74079;BME280;62437;51.544;-3.276;2023-06-10T00:12:04;100691.36;;;16.05;54.32
74079;BME280;62437;51.544;-3.276;2023-06-10T00:14:28;100695.16;;;17.38;51.86
74079;BME280;62437;51.544;-3.276;2023-06-10T00:16:54;100688.01;;;18.80;43.96
74079;BME280;62437;51.544;-3.276;2023-06-10T00:19:20;100695.36;;;16.47;53.35
74079;BME280;62437;51.544;-3.276;2023-06-10T00:21:45;100690.37;;;17.06;51.15
74079;BME280;62437;51.544;-3.276;2023-06-10T00:24:11;100696.13;;;15.72;55.23
74079;BME280;62437;51.544;-3.276;2023-06-10T00:26:37;100688.85;;;16.23;53.99
74079;BME280;62437;51.544;-3.276;2023-06-10T00:29:02;100677.58;;;17.77;50.25
74079;BME280;62437;51.544;-3.276;2023-06-10T00:31:28;100681.86;;;15.98;55.30
74079;BME280;62437;51.544;-3.276;2023-06-10T00:33:53;100675.14;;;16.76;52.68
74079;BME280;62437;51.544;-3.276;2023-06-10T00:36:19;100671.18;;;16.95;50.13
74079;BME280;62437;51.544;-3.276;2023-06-10T00:38:44;100668.56;;;16.01;55.62
74079;BME280;62437;51.544;-3.276;2023-06-10T00:41:10;100668.00;;;18.01;46.00
74079;BME280;62437;51.544;-3.276;2023-06-10T00:43:36;100668.44;;;16.11;53.41
74079;BME280;62437;51.544;-3.276;2023-06-10T00:46:02;100666.95;;;17.10;51.77
74079;BME280;62437;51.544;-3.276;2023-06-10T00:48:27;100668.35;;;15.81;54.11
74079;BME280;62437;51.544;-3.276;2023-06-10T00:50:53;100665.77;;;15.51;56.01
74079;BME280;62437;51.544;-3.276;2023-06-10T00:53:19;100666.61;;;16.27;51.30
74079;BME280;62437;51.544;-3.276;2023-06-10T00:55:44;100666.04;;;16.00;55.17
74079;BME280;62437;51.544;-3.276;2023-06-10T00:58:10;100669.48;;;16.16;55.24
74079;BME280;62437;51.544;-3.276;2023-06-10T01:00:35;100664.28;;;15.86;54.97
74079;BME280;62437;51.544;-3.276;2023-06-10T01:03:01;100661.49;;;15.84;55.13
74079;BME280;62437;51.544;-3.276;2023-06-10T01:05:26;100658.79;;;15.41;55.58
74079;BME280;62437;51.544;-3.276;2023-06-10T01:07:59;100655.23;;;15.73;53.99
74079;BME280;62437;51.544;-3.276;2023-06-10T01:10:21;100650.31;;;17.46;48.75
74079;BME280;62437;51.544;-3.276;2023-06-10T01:12:46;100653.12;;;16.05;53.61
74079;BME280;62437;51.544;-3.276;2023-06-10T01:15:09;100651.78;;;15.50;55.08
74079;BME280;62437;51.544;-3.276;2023-06-10T01:20:00;100645.45;;;15.36;56.78
74079;BME280;62437;51.544;-3.276;2023-06-10T01:22:27;100646.52;;;15.14;57.00
74079;BME280;62437;51.544;-3.276;2023-06-10T01:24:52;100649.68;;;15.76;54.74
74079;BME280;62437;51.544;-3.276;2023-06-10T01:27:19;100649.06;;;15.40;55.87
74079;BME280;62437;51.544;-3.276;2023-06-10T01:29:46;100642.46;;;15.73;54.62
74079;BME280;62437;51.544;-3.276;2023-06-10T01:32:14;100645.86;;;15.53;56.07
74079;BME280;62437;51.544;-3.276;2023-06-10T01:34:35;100645.46;;;14.92;57.04
74079;BME280;62437;51.544;-3.276;2023-06-10T01:37:00;100641.05;;;15.38;56.44
74079;BME280;62437;51.544;-3.276;2023-06-10T01:39:25;100646.91;;;15.57;54.71
74079;BME280;62437;51.544;-3.276;2023-06-10T01:41:52;100649.67;;;15.37;56.60
74079;BME280;62437;51.544;-3.276;2023-06-10T01:44:19;100644.41;;;15.69;56.05
74079;BME280;62437;51.544;-3.276;2023-06-10T01:46:42;100650.82;;;14.73;57.82
74079;BME280;62437;51.544;-3.276;2023-06-10T01:49:09;100654.94;;;14.64;58.48
74079;BME280;62437;51.544;-3.276;2023-06-10T01:51:33;100649.57;;;14.28;59.12
74079;BME280;62437;51.544;-3.276;2023-06-10T01:53:59;100654.46;;;14.42;59.60
74079;BME280;62437;51.544;-3.276;2023-06-10T01:56:25;100654.23;;;15.54;56.16
74079;BME280;62437;51.544;-3.276;2023-06-10T01:58:50;100649.93;;;14.97;57.81
74079;BME280;62437;51.544;-3.276;2023-06-10T02:01:16;100643.03;;;14.68;58.31
74079;BME280;62437;51.544;-3.276;2023-06-10T02:03:41;100648.84;;;14.03;59.57
74079;BME280;62437;51.544;-3.276;2023-06-10T02:06:07;100645.12;;;14.44;58.65
74079;BME280;62437;51.544;-3.276;2023-06-10T02:08:33;100638.84;;;16.11;49.65
74079;BME280;62437;51.544;-3.276;2023-06-10T02:10:58;100641.21;;;14.95;58.41
74079;BME280;62437;51.544;-3.276;2023-06-10T02:13:24;100640.05;;;14.25;58.86
74079;BME280;62437;51.544;-3.276;2023-06-10T02:15:50;100640.56;;;14.87;57.38
74079;BME280;62437;51.544;-3.276;2023-06-10T02:18:15;100644.04;;;14.72;58.10
74079;BME280;62437;51.544;-3.276;2023-06-10T02:20:41;100638.25;;;14.10;59.69
74079;BME280;62437;51.544;-3.276;2023-06-10T02:23:06;100640.05;;;14.51;58.50
74079;BME280;62437;51.544;-3.276;2023-06-10T02:25:32;100646.00;;;13.94;59.93
74079;BME280;62437;51.544;-3.276;2023-06-10T02:27:58;100642.97;;;13.84;60.82
74079;BME280;62437;51.544;-3.276;2023-06-10T02:30:23;100643.04;;;13.42;61.58
74079;BME280;62437;51.544;-3.276;2023-06-10T02:32:49;100639.94;;;13.78;60.81
74079;BME280;62437;51.544;-3.276;2023-06-10T02:35:15;100636.14;;;13.76;60.96
74079;BME280;62437;51.544;-3.276;2023-06-10T02:37:40;100641.55;;;13.84;60.12
74079;BME280;62437;51.544;-3.276;2023-06-10T02:40:07;100641.96;;;14.04;60.15
74079;BME280;62437;51.544;-3.276;2023-06-10T02:42:32;100643.59;;;14.16;59.11
74079;BME280;62437;51.544;-3.276;2023-06-10T02:44:58;100635.42;;;14.98;57.64
74079;BME280;62437;51.544;-3.276;2023-06-10T02:47:23;100642.88;;;14.48;58.36
74079;BME280;62437;51.544;-3.276;2023-06-10T02:49:49;100647.59;;;13.91;59.76
74079;BME280;62437;51.544;-3.276;2023-06-10T02:52:14;100643.83;;;13.90;59.04
74079;BME280;62437;51.544;-3.276;2023-06-10T02:54:40;100640.62;;;14.21;58.85
74079;BME280;62437;51.544;-3.276;2023-06-10T02:57:06;100643.72;;;13.96;59.18
74079;BME280;62437;51.544;-3.276;2023-06-10T02:59:31;100638.23;;;14.42;58.93
74079;BME280;62437;51.544;-3.276;2023-06-10T03:01:57;100634.67;;;13.89;58.57
74079;BME280;62437;51.544;-3.276;2023-06-10T03:04:23;100629.61;;;15.69;53.37
74079;BME280;62437;51.544;-3.276;2023-06-10T03:06:48;100631.62;;;15.07;56.64
74079;BME280;62437;51.544;-3.276;2023-06-10T03:09:14;100632.28;;;14.23;57.35
74079;BME280;62437;51.544;-3.276;2023-06-10T03:11:39;100634.73;;;15.06;55.63
74079;BME280;62437;51.544;-3.276;2023-06-10T03:14:05;100635.13;;;15.58;49.41
74079;BME280;62437;51.544;-3.276;2023-06-10T03:16:30;100640.59;;;13.98;58.96
74079;BME280;62437;51.544;-3.276;2023-06-10T03:18:56;100640.55;;;14.59;57.10
74079;BME280;62437;51.544;-3.276;2023-06-10T03:21:22;100640.38;;;14.64;56.40
74079;BME280;62437;51.544;-3.276;2023-06-10T03:23:47;100632.68;;;15.07;54.67
74079;BME280;62437;51.544;-3.276;2023-06-10T03:26:13;100634.10;;;14.86;55.06
74079;BME280;62437;51.544;-3.276;2023-06-10T03:28:39;100638.38;;;15.16;54.90
74079;BME280;62437;51.544;-3.276;2023-06-10T03:31:05;100637.01;;;15.33;53.81
74079;BME280;62437;51.544;-3.276;2023-06-10T03:33:30;100638.32;;;15.05;55.11
74079;BME280;62437;51.544;-3.276;2023-06-10T03:35:56;100642.73;;;14.28;55.79
74079;BME280;62437;51.544;-3.276;2023-06-10T03:38:21;100645.43;;;13.61;58.85
74079;BME280;62437;51.544;-3.276;2023-06-10T03:40:47;100640.50;;;15.09;55.40
74079;BME280;62437;51.544;-3.276;2023-06-10T03:43:13;100636.56;;;15.22;54.13
74079;BME280;62437;51.544;-3.276;2023-06-10T03:45:38;100638.16;;;14.76;55.72
74079;BME280;62437;51.544;-3.276;2023-06-10T03:48:05;100634.95;;;16.10;48.24
74079;BME280;62437;51.544;-3.276;2023-06-10T03:50:29;100636.30;;;15.14;54.12
74079;BME280;62437;51.544;-3.276;2023-06-10T03:52:55;100637.14;;;15.19;54.37
74079;BME280;62437;51.544;-3.276;2023-06-10T03:55:21;100636.01;;;15.02;54.75
74079;BME280;62437;51.544;-3.276;2023-06-10T03:57:46;100633.29;;;15.52;53.23
74079;BME280;62437;51.544;-3.276;2023-06-10T04:00:13;100636.96;;;14.57;55.25
74079;BME280;62437;51.544;-3.276;2023-06-10T04:02:38;100638.60;;;15.34;53.47
74079;BME280;62437;51.544;-3.276;2023-06-10T04:05:04;100641.63;;;15.69;53.28
74079;BME280;62437;51.544;-3.276;2023-06-10T04:07:29;100649.97;;;13.97;56.77
74079;BME280;62437;51.544;-3.276;2023-06-10T04:09:54;100647.94;;;15.98;50.83
74079;BME280;62437;51.544;-3.276;2023-06-10T04:12:20;100642.78;;;17.78;41.96
74079;BME280;62437;51.544;-3.276;2023-06-10T04:14:46;100646.61;;;14.91;54.63
74079;BME280;62437;51.544;-3.276;2023-06-10T04:17:11;100648.53;;;16.22;51.03
74079;BME280;62437;51.544;-3.276;2023-06-10T04:19:37;100643.54;;;17.83;41.93
74079;BME280;62437;51.544;-3.276;2023-06-10T04:22:03;100647.55;;;18.53;40.84
74079;BME280;62437;51.544;-3.276;2023-06-10T04:24:28;100651.11;;;19.00;39.17
74079;BME280;62437;51.544;-3.276;2023-06-10T04:26:54;100650.95;;;17.61;47.99
74079;BME280;62437;51.544;-3.276;2023-06-10T04:29:20;100654.50;;;18.35;40.72
74079;BME280;62437;51.544;-3.276;2023-06-10T04:31:45;100652.61;;;16.70;49.85
74079;BME280;62437;51.544;-3.276;2023-06-10T04:34:11;100651.97;;;17.61;43.04
74079;BME280;62437;51.544;-3.276;2023-06-10T04:36:37;100653.24;;;17.34;45.51
74079;BME280;62437;51.544;-3.276;2023-06-10T04:39:02;100650.40;;;15.45;50.45
74079;BME280;62437;51.544;-3.276;2023-06-10T04:41:28;100651.05;;;17.10;47.49
74079;BME280;62437;51.544;-3.276;2023-06-10T04:43:53;100651.51;;;16.62;49.78
74079;BME280;62437;51.544;-3.276;2023-06-10T04:46:19;100653.85;;;16.24;48.99
74079;BME280;62437;51.544;-3.276;2023-06-10T04:48:45;100653.56;;;15.12;53.76
74079;BME280;62437;51.544;-3.276;2023-06-10T04:51:11;100649.06;;;15.22;52.67
74079;BME280;62437;51.544;-3.276;2023-06-10T04:53:36;100648.03;;;15.02;48.98
74079;BME280;62437;51.544;-3.276;2023-06-10T04:56:02;100655.62;;;14.20;54.88
74079;BME280;62437;51.544;-3.276;2023-06-10T04:58:27;100658.09;;;14.01;57.40
74079;BME280;62437;51.544;-3.276;2023-06-10T05:00:53;100654.93;;;14.62;56.77
74079;BME280;62437;51.544;-3.276;2023-06-10T05:03:19;100655.40;;;15.98;47.94
74079;BME280;62437;51.544;-3.276;2023-06-10T05:05:44;100660.92;;;14.86;54.04
74079;BME280;62437;51.544;-3.276;2023-06-10T05:08:10;100680.71;;;16.20;52.21
74079;BME280;62437;51.544;-3.276;2023-06-10T05:10:36;100676.48;;;16.80;45.38
74079;BME280;62437;51.544;-3.276;2023-06-10T05:13:01;100672.22;;;14.96;52.84
74079;BME280;62437;51.544;-3.276;2023-06-10T05:15:27;100669.08;;;15.41;48.70
74079;BME280;62437;51.544;-3.276;2023-06-10T05:17:52;100679.67;;;15.15;53.65
74079;BME280;62437;51.544;-3.276;2023-06-10T05:20:18;100686.53;;;14.05;55.40
74079;BME280;62437;51.544;-3.276;2023-06-10T05:22:44;100679.14;;;13.25;58.50
74079;BME280;62437;51.544;-3.276;2023-06-10T05:25:09;100675.91;;;15.14;54.85
74079;BME280;62437;51.544;-3.276;2023-06-10T05:27:35;100682.49;;;14.62;55.33
74079;BME280;62437;51.544;-3.276;2023-06-10T05:30:01;100680.31;;;15.13;53.16
74079;BME280;62437;51.544;-3.276;2023-06-10T05:32:26;100680.88;;;14.57;55.09
74079;BME280;62437;51.544;-3.276;2023-06-10T05:34:52;100684.14;;;15.26;54.21
74079;BME280;62437;51.544;-3.276;2023-06-10T05:37:17;100692.75;;;17.65;47.28
74079;BME280;62437;51.544;-3.276;2023-06-10T05:39:43;100700.18;;;13.99;56.03
74079;BME280;62437;51.544;-3.276;2023-06-10T05:42:09;100694.69;;;16.27;48.90
74079;BME280;62437;51.544;-3.276;2023-06-10T05:44:35;100691.21;;;16.08;48.91
74079;BME280;62437;51.544;-3.276;2023-06-10T05:47:00;100690.94;;;15.74;52.16
74079;BME280;62437;51.544;-3.276;2023-06-10T05:49:26;100692.59;;;16.57;50.13
74079;BME280;62437;51.544;-3.276;2023-06-10T05:51:51;100692.44;;;14.11;55.24
74079;BME280;62437;51.544;-3.276;2023-06-10T05:54:17;100688.07;;;13.74;57.18
74079;BME280;62437;51.544;-3.276;2023-06-10T05:56:43;100688.96;;;13.81;57.59
74079;BME280;62437;51.544;-3.276;2023-06-10T05:59:08;100690.14;;;14.06;57.05
74079;BME280;62437;51.544;-3.276;2023-06-10T06:01:34;100684.12;;;15.36;54.53
74079;BME280;62437;51.544;-3.276;2023-06-10T06:03:59;100682.28;;;14.82;54.96
74079;BME280;62437;51.544;-3.276;2023-06-10T06:06:25;100681.34;;;15.90;50.80
74079;BME280;62437;51.544;-3.276;2023-06-10T06:08:51;100686.31;;;14.63;55.81
74079;BME280;62437;51.544;-3.276;2023-06-10T06:11:16;100688.59;;;14.13;58.40
74079;BME280;62437;51.544;-3.276;2023-06-10T06:13:42;100686.80;;;14.62;54.77
74079;BME280;62437;51.544;-3.276;2023-06-10T06:16:07;100690.08;;;13.47;57.54
74079;BME280;62437;51.544;-3.276;2023-06-10T06:18:33;100690.30;;;14.15;56.63
74079;BME280;62437;51.544;-3.276;2023-06-10T06:20:59;100690.38;;;14.62;55.85
74079;BME280;62437;51.544;-3.276;2023-06-10T06:23:24;100682.15;;;13.88;57.05
74079;BME280;62437;51.544;-3.276;2023-06-10T06:25:50;100685.12;;;13.68;58.99
74079;BME280;62437;51.544;-3.276;2023-06-10T06:28:16;100686.31;;;13.63;58.22
74079;BME280;62437;51.544;-3.276;2023-06-10T06:30:41;100685.09;;;14.02;58.23
74079;BME280;62437;51.544;-3.276;2023-06-10T06:33:07;100688.54;;;15.12;54.17
74079;BME280;62437;51.544;-3.276;2023-06-10T06:35:33;100686.58;;;14.52;56.50
74079;BME280;62437;51.544;-3.276;2023-06-10T06:37:58;100681.78;;;14.45;55.83
74079;BME280;62437;51.544;-3.276;2023-06-10T06:40:24;100686.22;;;15.15;54.68
74079;BME280;62437;51.544;-3.276;2023-06-10T06:42:50;100689.02;;;14.64;56.46
74079;BME280;62437;51.544;-3.276;2023-06-10T06:45:15;100685.46;;;14.52;56.56
74079;BME280;62437;51.544;-3.276;2023-06-10T06:47:41;100686.36;;;15.37;55.95
74079;BME280;62437;51.544;-3.276;2023-06-10T06:50:07;100687.86;;;14.75;54.75
74079;BME280;62437;51.544;-3.276;2023-06-10T06:52:32;100686.63;;;16.24;52.48
74079;BME280;62437;51.544;-3.276;2023-06-10T06:54:58;100691.65;;;17.86;49.22
74079;BME280;62437;51.544;-3.276;2023-06-10T06:57:23;100695.16;;;17.95;48.69
74079;BME280;62437;51.544;-3.276;2023-06-10T06:59:49;100698.26;;;17.37;47.82
74079;BME280;62437;51.544;-3.276;2023-06-10T07:02:15;100697.78;;;16.54;50.59
74079;BME280;62437;51.544;-3.276;2023-06-10T07:04:40;100701.13;;;14.73;54.33
74079;BME280;62437;51.544;-3.276;2023-06-10T07:07:07;100700.14;;;16.05;53.38
74079;BME280;62437;51.544;-3.276;2023-06-10T07:09:31;100700.07;;;14.69;55.17
74079;BME280;62437;51.544;-3.276;2023-06-10T07:11:57;100695.38;;;15.16;55.91
74079;BME280;62437;51.544;-3.276;2023-06-10T07:14:22;100694.89;;;15.21;55.67
74079;BME280;62437;51.544;-3.276;2023-06-10T07:16:48;100691.95;;;15.29;57.43
74079;BME280;62437;51.544;-3.276;2023-06-10T07:19:13;100688.04;;;15.93;54.08
74079;BME280;62437;51.544;-3.276;2023-06-10T07:21:40;100684.45;;;15.74;55.50
74079;BME280;62437;51.544;-3.276;2023-06-10T07:24:05;100686.81;;;16.33;53.49
74079;BME280;62437;51.544;-3.276;2023-06-10T07:26:30;100692.48;;;15.94;52.69
74079;BME280;62437;51.544;-3.276;2023-06-10T07:28:56;100690.15;;;15.78;53.29
74079;BME280;62437;51.544;-3.276;2023-06-10T07:31:22;100691.16;;;17.00;52.63
74079;BME280;62437;51.544;-3.276;2023-06-10T07:33:47;100695.11;;;15.12;54.35
74079;BME280;62437;51.544;-3.276;2023-06-10T07:36:13;100697.71;;;14.92;55.52
74079;BME280;62437;51.544;-3.276;2023-06-10T07:38:38;100699.75;;;15.46;54.03
74079;BME280;62437;51.544;-3.276;2023-06-10T07:41:04;100702.28;;;15.52;52.30
74079;BME280;62437;51.544;-3.276;2023-06-10T07:43:29;100708.99;;;14.62;57.52
74079;BME280;62437;51.544;-3.276;2023-06-10T07:45:55;100706.80;;;14.61;57.65
74079;BME280;62437;51.544;-3.276;2023-06-10T07:48:20;100707.68;;;14.91;57.93
74079;BME280;62437;51.544;-3.276;2023-06-10T07:50:46;100703.69;;;15.92;55.55
74079;BME280;62437;51.544;-3.276;2023-06-10T07:53:12;100703.15;;;15.95;53.55
74079;BME280;62437;51.544;-3.276;2023-06-10T07:55:37;100703.12;;;15.87;55.76
74079;BME280;62437;51.544;-3.276;2023-06-10T07:58:03;100697.16;;;15.79;55.29
74079;BME280;62437;51.544;-3.276;2023-06-10T08:00:28;100689.45;;;16.17;53.56
74079;BME280;62437;51.544;-3.276;2023-06-10T08:02:54;100694.54;;;16.46;51.87
74079;BME280;62437;51.544;-3.276;2023-06-10T08:05:20;100690.28;;;16.72;52.10
74079;BME280;62437;51.544;-3.276;2023-06-10T08:07:45;100693.67;;;17.01;52.72
74079;BME280;62437;51.544;-3.276;2023-06-10T08:10:11;100695.52;;;15.92;52.67
74079;BME280;62437;51.544;-3.276;2023-06-10T08:12:36;100700.21;;;16.25;53.32
74079;BME280;62437;51.544;-3.276;2023-06-10T08:15:03;100697.51;;;15.97;53.61
74079;BME280;62437;51.544;-3.276;2023-06-10T08:17:28;100697.60;;;16.12;54.52
74079;BME280;62437;51.544;-3.276;2023-06-10T08:19:53;100700.10;;;16.73;51.69
74079;BME280;62437;51.544;-3.276;2023-06-10T08:22:19;100693.68;;;19.06;48.29
74079;BME280;62437;51.544;-3.276;2023-06-10T08:24:44;100692.21;;;16.90;50.86
74079;BME280;62437;51.544;-3.276;2023-06-10T08:27:10;100688.26;;;16.80;54.75
74079;BME280;62437;51.544;-3.276;2023-06-10T08:29:36;100688.00;;;17.24;50.94
74079;BME280;62437;51.544;-3.276;2023-06-10T08:32:01;100690.60;;;16.68;52.62
74079;BME280;62437;51.544;-3.276;2023-06-10T08:34:27;100689.66;;;16.76;52.22
74079;BME280;62437;51.544;-3.276;2023-06-10T08:36:52;100685.81;;;17.95;49.91
74079;BME280;62437;51.544;-3.276;2023-06-10T08:39:18;100689.34;;;20.74;44.31
74079;BME280;62437;51.544;-3.276;2023-06-10T08:41:57;100691.61;;;20.87;44.05
74079;BME280;62437;51.544;-3.276;2023-06-10T08:44:12;100703.62;;;19.05;46.01
74079;BME280;62437;51.544;-3.276;2023-06-10T08:46:36;100695.82;;;18.91;48.13
74079;BME280;62437;51.544;-3.276;2023-06-10T08:49:05;100690.38;;;18.94;46.87
74079;BME280;62437;51.544;-3.276;2023-06-10T08:51:26;100689.45;;;18.15;48.71
74079;BME280;62437;51.544;-3.276;2023-06-10T08:53:56;100684.25;;;17.96;48.27
74079;BME280;62437;51.544;-3.276;2023-06-10T08:56:23;100681.84;;;18.23;48.40
74079;BME280;62437;51.544;-3.276;2023-06-10T08:58:43;100679.09;;;17.62;48.92
74079;BME280;62437;51.544;-3.276;2023-06-10T09:01:08;100677.49;;;17.99;51.14
74079;BME280;62437;51.544;-3.276;2023-06-10T09:03:34;100671.00;;;19.87;47.19
74079;BME280;62437;51.544;-3.276;2023-06-10T09:05:59;100675.92;;;20.24;46.68
74079;BME280;62437;51.544;-3.276;2023-06-10T09:08:25;100680.01;;;17.72;49.30
74079;BME280;62437;51.544;-3.276;2023-06-10T09:10:51;100683.67;;;19.46;48.52
74079;BME280;62437;51.544;-3.276;2023-06-10T09:13:16;100680.96;;;18.78;49.23
74079;BME280;62437;51.544;-3.276;2023-06-10T09:15:41;100683.30;;;18.55;49.71
74079;BME280;62437;51.544;-3.276;2023-06-10T09:18:07;100688.41;;;19.11;47.37
74079;BME280;62437;51.544;-3.276;2023-06-10T09:20:33;100682.53;;;20.33;46.62
74079;BME280;62437;51.544;-3.276;2023-06-10T09:23:00;100696.58;;;19.11;48.98
74079;BME280;62437;51.544;-3.276;2023-06-10T09:25:35;100705.63;;;19.00;49.49
74079;BME280;62437;51.544;-3.276;2023-06-10T09:27:51;100699.88;;;20.07;45.80
74079;BME280;62437;51.544;-3.276;2023-06-10T09:30:24;100701.66;;;19.00;48.65
74079;BME280;62437;51.544;-3.276;2023-06-10T09:32:41;100699.40;;;19.53;47.14
74079;BME280;62437;51.544;-3.276;2023-06-10T09:35:10;100700.62;;;18.28;48.09
74079;BME280;62437;51.544;-3.276;2023-06-10T09:37:32;100698.10;;;19.29;49.57
74079;BME280;62437;51.544;-3.276;2023-06-10T09:40:04;100693.15;;;20.94;46.25
74079;BME280;62437;51.544;-3.276;2023-06-10T09:42:23;100696.33;;;18.43;50.01
74079;BME280;62437;51.544;-3.276;2023-06-10T09:44:50;100694.03;;;21.32;46.80
74079;BME280;62437;51.544;-3.276;2023-06-10T09:47:20;100694.24;;;21.30;46.03
74079;BME280;62437;51.544;-3.276;2023-06-10T09:49:40;100694.51;;;19.68;45.05
74079;BME280;62437;51.544;-3.276;2023-06-10T09:52:06;100700.04;;;21.72;45.21
74079;BME280;62437;51.544;-3.276;2023-06-10T09:54:32;100704.15;;;21.00;47.06
74079;BME280;62437;51.544;-3.276;2023-06-10T09:56:56;100706.15;;;21.38;46.23
74079;BME280;62437;51.544;-3.276;2023-06-10T09:59:29;100702.84;;;21.58;45.13
74079;BME280;62437;51.544;-3.276;2023-06-10T10:01:54;100706.82;;;19.41;47.37
74079;BME280;62437;51.544;-3.276;2023-06-10T10:04:13;100702.43;;;21.00;45.18
74079;BME280;62437;51.544;-3.276;2023-06-10T10:06:39;100707.48;;;21.76;45.89
74079;BME280;62437;51.544;-3.276;2023-06-10T10:09:04;100708.32;;;22.30;44.70
74079;BME280;62437;51.544;-3.276;2023-06-10T10:11:32;100703.82;;;21.51;43.49
74079;BME280;62437;51.544;-3.276;2023-06-10T10:13:55;100704.76;;;21.10;43.60
74079;BME280;62437;51.544;-3.276;2023-06-10T10:16:22;100706.22;;;20.52;45.58
74079;BME280;62437;51.544;-3.276;2023-06-10T10:18:52;100700.66;;;20.02;47.92
74079;BME280;62437;51.544;-3.276;2023-06-10T10:21:13;100698.18;;;19.85;46.07
74079;BME280;62437;51.544;-3.276;2023-06-10T10:23:44;100706.05;;;21.60;46.46
74079;BME280;62437;51.544;-3.276;2023-06-10T10:26:05;100715.39;;;20.14;45.44
74079;BME280;62437;51.544;-3.276;2023-06-10T10:28:36;100732.19;;;19.83;45.50
74079;BME280;62437;51.544;-3.276;2023-06-10T10:30:59;100734.78;;;19.41;49.37
74079;BME280;62437;51.544;-3.276;2023-06-10T10:33:23;100735.61;;;19.22;49.12
74079;BME280;62437;51.544;-3.276;2023-06-10T10:35:46;100734.47;;;19.86;48.61
74079;BME280;62437;51.544;-3.276;2023-06-10T10:38:11;100723.95;;;22.12;46.13
74079;BME280;62437;51.544;-3.276;2023-06-10T10:40:37;100728.16;;;20.62;44.68
74079;BME280;62437;51.544;-3.276;2023-06-10T10:43:02;100730.54;;;21.61;47.37
74079;BME280;62437;51.544;-3.276;2023-06-10T10:45:28;100728.61;;;22.27;45.20
74079;BME280;62437;51.544;-3.276;2023-06-10T10:47:54;100732.32;;;20.89;44.23
74079;BME280;62437;51.544;-3.276;2023-06-10T10:50:19;100728.36;;;21.45;43.66
74079;BME280;62437;51.544;-3.276;2023-06-10T10:52:52;100719.99;;;19.78;46.43
74079;BME280;62437;51.544;-3.276;2023-06-10T10:55:13;100719.99;;;19.01;47.56
74079;BME280;62437;51.544;-3.276;2023-06-10T10:57:39;100717.29;;;19.44;47.90
74079;BME280;62437;51.544;-3.276;2023-06-10T11:00:01;100721.28;;;18.27;50.29
74079;BME280;62437;51.544;-3.276;2023-06-10T11:02:34;100722.53;;;17.91;52.22
74079;BME280;62437;51.544;-3.276;2023-06-10T11:04:52;100718.22;;;18.11;52.81
74079;BME280;62437;51.544;-3.276;2023-06-10T11:07:20;100720.08;;;17.68;51.76
74079;BME280;62437;51.544;-3.276;2023-06-10T11:12:09;100724.64;;;18.96;51.32
74079;BME280;62437;51.544;-3.276;2023-06-10T11:14:34;100720.88;;;18.32;53.00
74079;BME280;62437;51.544;-3.276;2023-06-10T11:17:00;100724.86;;;19.59;49.62
74079;BME280;62437;51.544;-3.276;2023-06-10T11:19:34;100724.06;;;19.77;49.06
74079;BME280;62437;51.544;-3.276;2023-06-10T11:21:59;100731.25;;;18.72;48.63
74079;BME280;62437;51.544;-3.276;2023-06-10T11:24:16;100729.25;;;18.77;49.08
74079;BME280;62437;51.544;-3.276;2023-06-10T11:26:44;100731.38;;;18.88;49.49
74079;BME280;62437;51.544;-3.276;2023-06-10T11:29:08;100724.83;;;19.96;48.82
74079;BME280;62437;51.544;-3.276;2023-06-10T11:31:35;100724.37;;;19.67;49.57
74079;BME280;62437;51.544;-3.276;2023-06-10T11:34:00;100724.93;;;22.18;46.12
74079;BME280;62437;51.544;-3.276;2023-06-10T11:36:25;100729.43;;;20.99;45.61
74079;BME280;62437;51.544;-3.276;2023-06-10T11:38:50;100727.05;;;22.33;42.94
74079;BME280;62437;51.544;-3.276;2023-06-10T11:41:15;100733.09;;;20.22;46.71
74079;BME280;62437;51.544;-3.276;2023-06-10T11:43:43;100733.79;;;22.03;45.86
74079;BME280;62437;51.544;-3.276;2023-06-10T11:46:06;100732.27;;;22.40;42.78
74079;BME280;62437;51.544;-3.276;2023-06-10T11:48:32;100735.23;;;20.70;45.11
74079;BME280;62437;51.544;-3.276;2023-06-10T11:50:57;100732.58;;;23.51;42.98
74079;BME280;62437;51.544;-3.276;2023-06-10T11:53:23;100732.33;;;20.93;44.97
74079;BME280;62437;51.544;-3.276;2023-06-10T11:55:50;100732.09;;;19.47;47.03
74079;BME280;62437;51.544;-3.276;2023-06-10T11:58:14;100733.23;;;21.01;45.89
74079;BME280;62437;51.544;-3.276;2023-06-10T12:00:45;100733.42;;;20.11;46.81
74079;BME280;62437;51.544;-3.276;2023-06-10T12:03:05;100732.34;;;19.75;49.23
74079;BME280;62437;51.544;-3.276;2023-06-10T12:05:31;100736.84;;;19.67;49.38
74079;BME280;62437;51.544;-3.276;2023-06-10T12:08:09;100731.28;;;20.02;47.65
74079;BME280;62437;51.544;-3.276;2023-06-10T12:10:22;100733.60;;;20.21;47.39
74079;BME280;62437;51.544;-3.276;2023-06-10T12:12:47;100732.33;;;20.00;47.66
74079;BME280;62437;51.544;-3.276;2023-06-10T12:17:38;100742.85;;;18.96;50.72
74079;BME280;62437;51.544;-3.276;2023-06-10T12:20:06;100739.91;;;18.79;53.94
74079;BME280;62437;51.544;-3.276;2023-06-10T12:22:36;100740.52;;;19.08;52.27
74079;BME280;62437;51.544;-3.276;2023-06-10T12:25:00;100733.09;;;18.34;51.82
74079;BME280;62437;51.544;-3.276;2023-06-10T12:27:21;100728.97;;;19.06;50.85
74079;BME280;62437;51.544;-3.276;2023-06-10T12:29:52;100734.65;;;18.68;52.31
74079;BME280;62437;51.544;-3.276;2023-06-10T12:32:12;100729.78;;;19.04;52.28
74079;BME280;62437;51.544;-3.276;2023-06-10T12:34:38;100739.79;;;18.84;53.01
74079;BME280;62437;51.544;-3.276;2023-06-10T12:37:05;100732.23;;;19.22;51.04
74079;BME280;62437;51.544;-3.276;2023-06-10T12:39:29;100726.79;;;19.38;51.46